TimeEST,TemperatureF,Dew PointF,Humidity,Sea Level PressureIn,VisibilityMPH,Wind Direction,Wind SpeedMPH,Gust SpeedMPH,PrecipitationIn,Events,Conditions,WindDirDegrees,DateUTC
12:32 AM,33.8,32.0,93,29.51,9.0,WSW,19.6,31.1,N/A,,Overcast,240,2014-01-12 05:32:00
12:54 AM,34.0,31.1,89,29.54,9.0,WSW,24.2,35.7,0.00,Snow,Light Snow,240,2014-01-12 05:54:00
1:07 AM,33.8,32.0,93,29.52,9.0,WSW,20.7,29.9,0.00,,Overcast,240,2014-01-12 06:07:00
1:30 AM,33.8,32.0,93,29.53,8.0,WSW,20.7,31.1,0.00,Snow,Light Snow,250,2014-01-12 06:30:00
1:54 AM,34.0,31.1,89,29.56,9.0,WSW,21.9,32.2,0.00,Snow,Light Snow,240,2014-01-12 06:54:00
2:31 AM,33.8,32.0,93,29.57,9.0,WSW,23.0,32.2,0.00,Snow,Light Snow,240,2014-01-12 07:31:00
2:54 AM,34.0,31.1,89,29.59,8.0,WSW,19.6,27.6,0.00,Snow,Light Snow,240,2014-01-12 07:54:00
3:12 AM,33.8,32.0,93,29.58,6.0,WSW,17.3,28.8,0.00,,Light Drizzle,240,2014-01-12 08:12:00
3:54 AM,33.1,31.1,92,29.62,8.0,WSW,18.4,28.8,0.00,,Light Drizzle,250,2014-01-12 08:54:00
4:54 AM,33.1,31.1,92,29.65,8.0,WSW,13.8,20.7,0.00,,Light Drizzle,250,2014-01-12 09:54:00
5:18 AM,33.8,32.0,93,29.65,10.0,WSW,13.8,-,0.00,,Overcast,250,2014-01-12 10:18:00
5:36 AM,33.8,32.0,93,29.66,10.0,WSW,13.8,21.9,0.00,,Overcast,250,2014-01-12 10:36:00
5:50 AM,33.8,32.0,93,29.67,9.0,WSW,15.0,23.0,0.00,,Overcast,250,2014-01-12 10:50:00
5:54 AM,33.1,31.1,92,29.69,9.0,WSW,17.3,23.0,0.00,,Overcast,240,2014-01-12 10:54:00
6:39 AM,33.8,30.2,87,29.70,4.0,WSW,16.1,20.7,0.00,,Light Drizzle,250,2014-01-12 11:39:00
6:54 AM,33.1,30.0,89,29.73,7.0,WSW,12.7,23.0,0.00,,Light Drizzle,240,2014-01-12 11:54:00
7:27 AM,33.8,30.2,87,29.73,9.0,West,16.1,21.9,0.00,,Overcast,260,2014-01-12 12:27:00
7:40 AM,33.8,30.2,87,29.74,10.0,WSW,17.3,25.3,0.00,,Overcast,250,2014-01-12 12:40:00
7:54 AM,33.1,30.0,89,29.77,10.0,WSW,13.8,-,0.00,,Overcast,250,2014-01-12 12:54:00
8:54 AM,33.1,28.9,85,29.81,10.0,WSW,12.7,23.0,N/A,,Overcast,250,2014-01-12 13:54:00
9:54 AM,33.1,28.9,85,29.84,10.0,WSW,12.7,-,N/A,,Overcast,250,2014-01-12 14:54:00
10:54 AM,33.1,28.9,85,29.88,8.0,WSW,17.3,24.2,0.00,,Light Drizzle,240,2014-01-12 15:54:00
11:54 AM,33.1,28.0,82,29.88,10.0,WSW,19.6,25.3,0.00,,Overcast,240,2014-01-12 16:54:00
12:54 PM,32.0,28.9,88,29.88,7.0,WSW,18.4,25.3,0.00,Snow,Light Snow,250,2014-01-12 17:54:00
1:54 PM,33.1,28.9,85,29.89,9.0,WSW,17.3,24.2,0.00,,Overcast,240,2014-01-12 18:54:00
2:22 PM,33.8,28.4,81,29.86,9.0,WSW,16.1,25.3,N/A,,Overcast,240,2014-01-12 19:22:00
2:54 PM,33.1,30.0,89,29.90,8.0,WSW,18.4,24.2,N/A,,Overcast,240,2014-01-12 19:54:00
3:54 PM,33.1,30.0,89,29.94,7.0,WSW,21.9,25.3,N/A,,Overcast,240,2014-01-12 20:54:00
4:54 PM,32.0,28.9,88,29.94,7.0,SW,16.1,23.0,N/A,,Mostly Cloudy,230,2014-01-12 21:54:00
5:13 PM,32.0,28.4,87,29.93,6.0,SW,13.8,21.9,N/A,,Mostly Cloudy,230,2014-01-12 22:13:00
5:54 PM,32.0,27.0,82,29.96,10.0,SW,10.4,23.0,N/A,,Scattered Clouds,220,2014-01-12 22:54:00
6:54 PM,32.0,28.0,85,29.98,8.0,SW,11.5,-,N/A,,Partly Cloudy,220,2014-01-12 23:54:00
7:54 PM,30.9,28.0,89,29.96,6.0,SSW,9.2,-,N/A,,Partly Cloudy,210,2014-01-13 00:54:00
8:54 PM,30.0,27.0,88,29.95,8.0,SSW,10.4,-,N/A,,Partly Cloudy,200,2014-01-13 01:54:00
9:54 PM,32.0,26.1,79,29.93,10.0,South,9.2,-,N/A,,Scattered Clouds,180,2014-01-13 02:54:00
10:54 PM,33.1,26.1,75,29.92,10.0,South,15.0,-,N/A,,Scattered Clouds,190,2014-01-13 03:54:00
11:54 PM,33.1,26.1,75,29.91,10.0,South,12.7,-,N/A,,Scattered Clouds,190,2014-01-13 04:54:00